createdAt,value
2023-05-15T00:00:12.092Z,8.86
2023-05-15T00:00:49.950Z,8.86
2023-05-15T00:01:13.272Z,8.86
2023-05-15T00:01:44.364Z,8.86
2023-05-15T00:02:14.999Z,8.86
2023-05-15T00:02:45.350Z,8.86
2023-05-15T00:03:17.111Z,8.86
2023-05-15T00:03:47.458Z,8.86
2023-05-15T00:04:19.122Z,8.86
2023-05-15T00:04:49.324Z,8.86
2023-05-15T00:05:21.613Z,8.86
2023-05-15T00:05:51.334Z,8.86
2023-05-15T00:06:23.006Z,8.86
2023-05-15T00:06:54.655Z,8.86
2023-05-15T00:07:25.377Z,8.86
2023-05-15T00:07:55.890Z,8.86
2023-05-15T00:08:27.026Z,8.86
2023-05-15T00:08:58.001Z,8.86
2023-05-15T00:09:29.024Z,8.86
2023-05-15T00:09:59.458Z,8.86
2023-05-15T00:10:32.279Z,8.86
2023-05-15T00:11:02.280Z,8.86
2023-05-15T00:11:33.368Z,8.86
2023-05-15T00:12:04.390Z,8.86
2023-05-15T00:12:35.093Z,8.86
2023-05-15T00:13:05.634Z,8.86
2023-05-15T00:13:37.069Z,8.86
2023-05-15T00:14:07.336Z,8.86
2023-05-15T00:14:39.246Z,8.86
2023-05-15T00:15:10.864Z,8.86
2023-05-15T00:15:41.045Z,8.86
2023-05-15T00:16:11.345Z,8.86
2023-05-15T00:16:43.379Z,8.86
2023-05-15T00:17:14.942Z,8.86
2023-05-15T00:17:45.436Z,8.86
2023-05-15T00:18:15.356Z,8.86
2023-05-15T00:18:47.051Z,8.86
2023-05-15T00:19:17.491Z,8.86
2023-05-15T00:19:49.054Z,8.86
2023-05-15T00:20:19.821Z,8.74
2023-05-15T00:20:50.927Z,8.74
2023-05-15T00:21:21.898Z,8.74
2023-05-15T00:21:53.093Z,8.74
2023-05-15T00:22:24.666Z,8.74
2023-05-15T00:22:54.966Z,8.74
2023-05-15T00:23:25.367Z,8.74
2023-05-15T00:23:57.843Z,8.74
2023-05-15T00:24:27.359Z,8.74
2023-05-15T00:24:59.255Z,8.74
2023-05-15T00:25:30.031Z,8.74
2023-05-15T00:26:01.803Z,8.74
2023-05-15T00:26:31.376Z,8.74
2023-05-15T00:27:03.147Z,8.74
2023-05-15T00:27:34.301Z,8.74
2023-05-15T00:28:05.318Z,8.74
2023-05-15T00:28:35.274Z,8.74
2023-05-15T00:29:07.026Z,8.74
2023-05-15T00:29:37.340Z,8.74
2023-05-15T00:30:10.851Z,8.74
2023-05-15T00:30:39.382Z,8.74
2023-05-15T00:31:11.096Z,8.74
2023-05-15T00:31:41.382Z,8.74
2023-05-15T00:32:13.081Z,8.74
2023-05-15T00:32:44.400Z,8.74
2023-05-15T00:33:15.007Z,8.74
2023-05-15T00:33:45.252Z,8.74
2023-05-15T00:34:16.936Z,8.74
2023-05-15T00:34:47.923Z,8.74
2023-05-15T00:35:19.628Z,8.74
2023-05-15T00:35:49.271Z,8.74
2023-05-15T00:36:21.004Z,8.74
2023-05-15T00:36:51.261Z,8.74
2023-05-15T00:37:23.658Z,8.74
2023-05-15T00:37:54.592Z,8.74
2023-05-15T00:38:25.247Z,8.74
2023-05-15T00:38:55.812Z,8.74
2023-05-15T00:39:26.962Z,8.74
2023-05-15T00:39:57.302Z,8.74
2023-05-15T00:40:42.086Z,8.74
2023-05-15T00:40:59.305Z,8.74
2023-05-15T00:41:31.368Z,8.74
2023-05-15T00:42:02.220Z,8.74
2023-05-15T00:42:33.096Z,8.74
2023-05-15T00:43:04.298Z,8.74
2023-05-15T00:43:35.982Z,8.74
2023-05-15T00:44:05.330Z,8.74
2023-05-15T00:44:36.997Z,8.74
2023-05-15T00:45:08.537Z,8.74
2023-05-15T00:45:39.042Z,8.74
2023-05-15T00:46:09.434Z,8.74
2023-05-15T00:46:41.088Z,8.74
2023-05-15T00:47:11.509Z,8.74
2023-05-15T00:47:43.003Z,8.74
2023-05-15T00:48:14.525Z,8.74
2023-05-15T00:48:44.623Z,8.74
2023-05-15T00:49:16.163Z,8.74
2023-05-15T00:49:46.417Z,8.74
2023-05-15T00:50:18.715Z,8.74
2023-05-15T00:50:48.428Z,8.74
2023-05-15T00:51:20.014Z,8.74
2023-05-15T00:51:50.291Z,8.74
2023-05-15T00:52:22.026Z,8.74
2023-05-15T00:52:52.230Z,8.74
2023-05-15T00:53:25.924Z,8.74
2023-05-15T00:53:54.443Z,8.74
2023-05-15T00:54:25.951Z,8.74
2023-05-15T00:54:56.927Z,8.74
2023-05-15T00:55:28.507Z,8.74
2023-05-15T00:55:58.274Z,8.74
2023-05-15T00:56:30.447Z,8.74
2023-05-15T00:57:00.263Z,8.74
2023-05-15T00:57:32.221Z,8.74
2023-05-15T00:58:02.321Z,8.74
2023-05-15T00:58:34.989Z,8.74
2023-05-15T00:59:04.876Z,8.74
2023-05-15T00:59:36.231Z,8.74
2023-05-15T01:00:07.551Z,8.74
2023-05-15T01:00:39.340Z,8.74
2023-05-15T01:01:08.835Z,8.74
2023-05-15T01:01:40.499Z,8.74
2023-05-15T01:02:10.407Z,8.63
2023-05-15T01:02:42.093Z,8.63
2023-05-15T01:03:12.375Z,8.63
2023-05-15T01:03:45.076Z,8.63
2023-05-15T01:04:14.301Z,8.63
2023-05-15T01:04:45.981Z,8.63
2023-05-15T01:05:16.860Z,8.63
2023-05-15T01:05:48.002Z,8.63
2023-05-15T01:06:18.596Z,8.63
2023-05-15T01:06:50.042Z,8.63
2023-05-15T01:07:20.500Z,8.63
2023-05-15T01:07:51.994Z,8.63
2023-05-15T01:08:22.936Z,8.63
2023-05-15T01:08:55.164Z,8.63
2023-05-15T01:09:24.786Z,8.63
2023-05-15T01:09:56.127Z,8.63
2023-05-15T01:10:26.903Z,8.63
2023-05-15T01:10:58.011Z,8.63
2023-05-15T01:11:28.267Z,8.63
2023-05-15T01:12:00.134Z,8.63
2023-05-15T01:12:30.493Z,8.63
2023-05-15T01:13:02.338Z,8.63
2023-05-15T01:13:32.401Z,8.63
2023-05-15T01:14:05.275Z,8.63
2023-05-15T01:14:34.301Z,8.63
2023-05-15T01:15:07.773Z,8.63
2023-05-15T01:15:36.370Z,8.63
2023-05-15T01:16:08.477Z,8.63
2023-05-15T01:16:38.243Z,8.63
2023-05-15T01:17:10.004Z,8.63
2023-05-15T01:17:40.357Z,8.63
2023-05-15T01:18:12.233Z,8.63
2023-05-15T01:18:42.444Z,8.63
2023-05-15T01:19:15.234Z,8.63
2023-05-15T01:19:44.730Z,8.58
2023-05-15T01:20:16.697Z,8.58
2023-05-15T01:20:50.031Z,8.58
2023-05-15T01:21:18.042Z,8.58
2023-05-15T01:21:49.856Z,8.58
2023-05-15T01:22:19.929Z,8.58
2023-05-15T01:22:50.365Z,8.58
2023-05-15T01:23:22.069Z,8.63
2023-05-15T01:23:52.305Z,8.63
2023-05-15T01:24:25.857Z,8.63
2023-05-15T01:24:54.639Z,8.63
2023-05-15T01:25:26.800Z,8.58
2023-05-15T01:25:56.529Z,8.58
2023-05-15T01:26:27.937Z,8.58
2023-05-15T01:26:58.340Z,8.58
2023-05-15T01:27:29.943Z,8.58
2023-05-15T01:28:00.283Z,8.58
2023-05-15T01:28:32.474Z,8.58
2023-05-15T01:29:02.366Z,8.58
2023-05-15T01:29:37.569Z,8.58
2023-05-15T01:30:06.147Z,8.58
2023-05-15T01:30:35.330Z,8.58
2023-05-15T01:31:07.003Z,8.58
2023-05-15T01:31:37.319Z,8.58
2023-05-15T01:32:09.513Z,8.58
2023-05-15T01:32:39.618Z,8.58
2023-05-15T01:33:11.037Z,8.58
2023-05-15T01:33:41.297Z,8.58
2023-05-15T01:34:13.038Z,8.58
2023-05-15T01:34:44.378Z,8.58
2023-05-15T01:35:16.110Z,8.58
2023-05-15T01:35:45.287Z,8.58
2023-05-15T01:36:17.043Z,8.58
2023-05-15T01:36:47.383Z,8.58
2023-05-15T01:37:19.197Z,8.58
2023-05-15T01:37:49.329Z,8.58
2023-05-15T01:38:21.048Z,8.58
2023-05-15T01:38:51.258Z,8.58
2023-05-15T01:39:23.061Z,8.58
2023-05-15T01:39:54.556Z,8.58
2023-05-15T01:40:29.244Z,8.58
2023-05-15T01:40:55.272Z,8.58
2023-05-15T01:41:27.072Z,8.58
2023-05-15T01:41:58.067Z,8.58
2023-05-15T01:42:29.060Z,8.58
2023-05-15T01:42:59.289Z,8.58
2023-05-15T01:43:31.054Z,8.58
2023-05-15T01:44:01.357Z,8.58
2023-05-15T01:44:32.944Z,8.58
2023-05-15T01:45:05.530Z,8.58
2023-05-15T01:45:35.979Z,8.58
2023-05-15T01:46:05.379Z,8.58
2023-05-15T01:46:36.988Z,8.58
2023-05-15T01:47:07.278Z,8.58
2023-05-15T01:47:39.156Z,8.58
2023-05-15T01:48:09.423Z,8.58
2023-05-15T01:48:41.022Z,8.58
2023-05-15T01:49:11.285Z,8.58
2023-05-15T01:49:43.013Z,8.58
2023-05-15T01:50:14.909Z,8.58
2023-05-15T01:50:45.229Z,8.58
2023-05-15T01:51:15.223Z,8.58
2023-05-15T01:51:47.014Z,8.58
2023-05-15T01:52:17.250Z,8.58
2023-05-15T01:52:49.247Z,8.58
2023-05-15T01:53:19.264Z,8.58
2023-05-15T01:53:50.965Z,8.58
2023-05-15T01:54:21.260Z,8.58
2023-05-15T01:54:52.936Z,8.58
2023-05-15T01:55:25.633Z,8.58
2023-05-15T01:55:55.154Z,8.58
2023-05-15T01:56:25.248Z,8.58
2023-05-15T01:56:56.960Z,8.58
2023-05-15T01:57:27.208Z,8.58
2023-05-15T01:57:59.034Z,8.58
2023-05-15T01:58:29.239Z,8.58
2023-05-15T01:59:00.943Z,8.58
2023-05-15T01:59:31.674Z,8.58
2023-05-15T02:00:04.195Z,8.58
2023-05-15T02:00:37.563Z,8.47
2023-05-15T02:01:07.037Z,8.47
2023-05-15T02:01:35.534Z,8.47
2023-05-15T02:02:07.987Z,8.58
2023-05-15T02:02:37.577Z,8.58
2023-05-15T02:03:09.065Z,8.58
2023-05-15T02:03:39.345Z,8.58
2023-05-15T02:04:11.359Z,8.58
2023-05-15T02:04:41.225Z,8.58
2023-05-15T02:05:14.000Z,8.47
2023-05-15T02:05:44.346Z,8.47
2023-05-15T02:06:15.394Z,8.47
2023-05-15T02:06:46.143Z,8.47
2023-05-15T02:07:17.071Z,8.47
2023-05-15T02:07:47.251Z,8.47
2023-05-15T02:08:19.222Z,8.47
2023-05-15T02:08:50.077Z,8.47
2023-05-15T02:09:20.956Z,8.47
2023-05-15T02:09:51.236Z,8.47
2023-05-15T02:10:23.438Z,8.47
2023-05-15T02:10:54.474Z,8.47
2023-05-15T02:11:26.090Z,8.47
2023-05-15T02:11:55.285Z,8.47
2023-05-15T02:12:26.950Z,8.47
2023-05-15T02:12:57.645Z,8.47
2023-05-15T02:13:29.012Z,8.47
2023-05-15T02:13:59.240Z,8.47
2023-05-15T02:14:30.959Z,8.47
2023-05-15T02:15:02.755Z,8.47
2023-05-15T02:15:33.725Z,8.47
2023-05-15T02:16:04.283Z,8.47
2023-05-15T02:16:35.404Z,8.47
2023-05-15T02:17:05.215Z,8.47
2023-05-15T02:17:36.982Z,8.47
2023-05-15T02:18:07.356Z,8.47
2023-05-15T02:18:39.035Z,8.47
2023-05-15T02:19:09.388Z,8.47
2023-05-15T02:19:41.017Z,8.47
2023-05-15T02:20:11.760Z,8.47
2023-05-15T02:20:43.037Z,8.47
2023-05-15T02:21:14.280Z,8.47
2023-05-15T02:21:45.243Z,8.47
2023-05-15T02:22:15.338Z,8.47
2023-05-15T02:22:46.975Z,8.47
2023-05-15T02:23:17.264Z,8.47
2023-05-15T02:23:49.283Z,8.47
2023-05-15T02:24:19.376Z,8.47
2023-05-15T02:24:51.004Z,8.47
2023-05-15T02:25:22.251Z,8.47
2023-05-15T02:25:52.985Z,8.47
2023-05-15T02:26:24.556Z,8.47
2023-05-15T02:26:55.285Z,8.47
2023-05-15T02:27:25.387Z,8.47
2023-05-15T02:27:57.018Z,8.47
2023-05-15T02:28:27.293Z,8.47
2023-05-15T02:28:59.756Z,8.47
2023-05-15T02:29:29.254Z,8.47
2023-05-15T02:30:02.524Z,8.47
2023-05-15T02:30:31.316Z,8.47
2023-05-15T02:31:03.053Z,8.47
2023-05-15T02:31:35.674Z,8.47
2023-05-15T02:32:05.304Z,8.47
2023-05-15T02:32:35.259Z,8.47
2023-05-15T02:33:07.018Z,8.47
2023-05-15T02:33:37.246Z,8.47
2023-05-15T02:34:08.929Z,8.47
2023-05-15T02:34:39.232Z,8.47
2023-05-15T02:35:11.520Z,8.47
2023-05-15T02:35:41.221Z,8.47
2023-05-15T02:36:12.950Z,8.47
2023-05-15T02:36:44.268Z,8.47
2023-05-15T02:37:15.073Z,8.47
2023-05-15T02:37:45.281Z,8.47
2023-05-15T02:38:16.944Z,8.47
2023-05-15T02:38:47.227Z,8.47
2023-05-15T02:39:19.064Z,8.47
2023-05-15T02:39:50.251Z,8.47
2023-05-15T02:40:21.583Z,8.47
2023-05-15T02:40:51.284Z,8.47
2023-05-15T02:41:23.006Z,8.47
2023-05-15T02:41:54.439Z,8.47
2023-05-15T02:42:26.080Z,8.47
2023-05-15T02:42:55.412Z,8.47
2023-05-15T02:43:26.907Z,8.47
2023-05-15T02:43:57.198Z,8.47
2023-05-15T02:44:28.939Z,8.47
2023-05-15T02:44:59.246Z,8.47
2023-05-15T02:45:31.844Z,8.47
2023-05-15T02:46:01.310Z,8.47
2023-05-15T02:46:32.913Z,8.47
2023-05-15T02:47:04.342Z,8.47
2023-05-15T02:47:35.207Z,8.47
2023-05-15T02:48:05.406Z,8.47
2023-05-15T02:48:36.239Z,8.47
2023-05-15T02:49:07.272Z,8.47
2023-05-15T02:49:39.029Z,8.47
2023-05-15T02:50:09.931Z,8.47
2023-05-15T02:50:40.976Z,8.47
2023-05-15T02:51:11.395Z,8.47
2023-05-15T02:51:42.967Z,8.47
2023-05-15T02:52:14.294Z,8.47
2023-05-15T02:52:45.229Z,8.47
2023-05-15T02:53:15.765Z,8.47
2023-05-15T02:53:47.051Z,8.47
2023-05-15T02:54:17.427Z,8.47
2023-05-15T02:54:49.081Z,8.47
2023-05-15T02:55:19.974Z,8.47
2023-05-15T02:55:51.629Z,8.47
2023-05-15T02:56:21.276Z,8.47
2023-05-15T02:56:52.996Z,8.47
2023-05-15T02:57:24.413Z,8.47
2023-05-15T02:57:55.220Z,8.47
2023-05-15T02:58:25.661Z,8.47
2023-05-15T02:58:56.968Z,8.47
2023-05-15T02:59:27.320Z,8.47
2023-05-15T02:59:59.101Z,8.47
2023-05-15T03:00:31.619Z,8.47
2023-05-15T03:01:01.273Z,8.47
2023-05-15T03:01:31.399Z,8.47
2023-05-15T03:02:03.063Z,8.47
2023-05-15T03:02:34.877Z,8.47
2023-05-15T03:03:05.380Z,8.47
2023-05-15T03:03:35.261Z,8.47
2023-05-15T03:04:06.977Z,8.47
2023-05-15T03:04:37.343Z,8.47
2023-05-15T03:05:10.309Z,8.47
2023-05-15T03:05:39.308Z,8.47
2023-05-15T03:06:10.977Z,8.47
2023-05-15T03:06:41.951Z,8.47
2023-05-15T03:07:13.434Z,8.47
2023-05-15T03:07:44.457Z,8.47
2023-05-15T03:08:15.083Z,8.47
2023-05-15T03:08:45.299Z,8.47
2023-05-15T03:09:17.587Z,8.47
2023-05-15T03:09:47.385Z,8.47
2023-05-15T03:10:19.836Z,8.47
2023-05-15T03:10:49.324Z,8.47
2023-05-15T03:11:21.381Z,8.47
2023-05-15T03:11:51.364Z,8.47
2023-05-15T03:12:23.022Z,8.47
2023-05-15T03:12:54.856Z,8.47
2023-05-15T03:13:25.502Z,8.47
2023-05-15T03:13:55.517Z,8.47
2023-05-15T03:14:27.050Z,8.47
2023-05-15T03:14:57.299Z,8.47
2023-05-15T03:15:30.098Z,8.47
2023-05-15T03:15:59.303Z,8.47
2023-05-15T03:16:30.996Z,8.47
2023-05-15T03:17:01.400Z,8.47
2023-05-15T03:17:33.208Z,8.47
2023-05-15T03:18:04.273Z,8.47
2023-05-15T03:18:35.039Z,8.47
2023-05-15T03:19:05.282Z,8.47
2023-05-15T03:19:37.018Z,8.47
2023-05-15T03:20:08.609Z,8.47
2023-05-15T03:20:40.655Z,8.47
2023-05-15T03:21:09.290Z,8.47
2023-05-15T03:21:40.997Z,8.47
2023-05-15T03:22:11.280Z,8.47
2023-05-15T03:22:43.474Z,8.47
2023-05-15T03:23:14.335Z,8.47
2023-05-15T03:23:45.292Z,8.47
2023-05-15T03:24:15.262Z,8.47
2023-05-15T03:24:46.992Z,8.47
2023-05-15T03:25:17.847Z,8.47
2023-05-15T03:25:49.343Z,8.47
2023-05-15T03:26:19.417Z,8.36
2023-05-15T03:26:50.992Z,8.36
2023-05-15T03:27:21.413Z,8.36
2023-05-15T03:27:52.977Z,8.36
2023-05-15T03:28:24.666Z,8.36
2023-05-15T03:28:55.292Z,8.36
2023-05-15T03:29:25.751Z,8.36
2023-05-15T03:29:57.053Z,8.36
2023-05-15T03:30:28.200Z,8.36
2023-05-15T03:30:59.077Z,8.36
2023-05-15T03:31:29.424Z,8.36
2023-05-15T03:32:01.169Z,8.36
2023-05-15T03:32:31.330Z,8.47
2023-05-15T03:33:03.207Z,8.36
2023-05-15T03:33:34.354Z,8.36
2023-05-15T03:34:05.279Z,8.36
2023-05-15T03:34:35.276Z,8.36
2023-05-15T03:35:07.459Z,8.36
2023-05-15T03:35:37.421Z,8.36
2023-05-15T03:36:09.936Z,8.36
2023-05-15T03:36:39.450Z,8.36
2023-05-15T03:37:11.069Z,8.36
2023-05-15T03:37:41.512Z,8.36
2023-05-15T03:38:13.186Z,8.36
2023-05-15T03:38:44.488Z,8.36
2023-05-15T03:39:15.184Z,8.36
2023-05-15T03:39:45.416Z,8.36
2023-05-15T03:40:17.851Z,8.36
2023-05-15T03:40:51.265Z,8.36
2023-05-15T03:41:19.281Z,8.36
2023-05-15T03:41:49.532Z,8.36
2023-05-15T03:42:21.360Z,8.36
2023-05-15T03:42:51.409Z,8.36
2023-05-15T03:43:23.318Z,8.36
2023-05-15T03:43:54.871Z,8.36
2023-05-15T03:44:25.864Z,8.36
2023-05-15T03:44:55.566Z,8.36
2023-05-15T03:45:29.194Z,8.36
2023-05-15T03:45:57.454Z,8.36
2023-05-15T03:46:29.148Z,8.36
2023-05-15T03:47:00.153Z,8.36
2023-05-15T03:47:31.165Z,8.36
2023-05-15T03:48:01.645Z,8.36
2023-05-15T03:48:32.383Z,8.36
2023-05-15T03:49:04.500Z,8.36
2023-05-15T03:49:36.081Z,8.36
2023-05-15T03:50:06.266Z,8.36
2023-05-15T03:50:37.953Z,8.36
2023-05-15T03:51:07.382Z,8.36
2023-05-15T03:51:39.058Z,8.36
2023-05-15T03:52:09.455Z,8.36
2023-05-15T03:52:42.245Z,8.36
2023-05-15T03:53:11.467Z,8.36
2023-05-15T03:53:43.103Z,8.36
2023-05-15T03:54:14.381Z,8.36
2023-05-15T03:54:45.333Z,8.36
2023-05-15T03:55:16.161Z,8.36
2023-05-15T03:55:47.090Z,8.36
2023-05-15T03:56:17.375Z,8.36
2023-05-15T03:56:49.284Z,8.36
2023-05-15T03:57:19.446Z,8.36
2023-05-15T03:57:51.168Z,8.36
2023-05-15T03:58:21.402Z,8.36
2023-05-15T03:58:53.093Z,8.36
2023-05-15T03:59:24.741Z,8.36
2023-05-15T03:59:55.515Z,8.36
2023-05-15T04:00:28.090Z,8.36
2023-05-15T04:00:57.302Z,8.36
2023-05-15T04:01:27.469Z,8.36
2023-05-15T04:02:04.958Z,8.36
2023-05-15T04:02:29.458Z,8.36
2023-05-15T04:03:02.102Z,8.36
2023-05-15T04:03:31.401Z,8.36
2023-05-15T04:04:03.204Z,8.36
2023-05-15T04:04:34.392Z,8.36
2023-05-15T04:05:06.301Z,8.36
2023-05-15T04:05:35.792Z,8.36
2023-05-15T04:06:07.116Z,8.36
2023-05-15T04:06:37.614Z,8.36
2023-05-15T04:07:09.158Z,8.36
2023-05-15T04:07:39.526Z,8.36
2023-05-15T04:08:11.183Z,8.36
2023-05-15T04:08:41.622Z,8.24
2023-05-15T04:09:13.261Z,8.36
2023-05-15T04:09:45.184Z,8.36
2023-05-15T04:10:16.008Z,8.36
2023-05-15T04:10:45.430Z,8.36
2023-05-15T04:11:17.122Z,8.36
2023-05-15T04:11:47.394Z,8.36
2023-05-15T04:12:19.284Z,8.36
2023-05-15T04:12:49.609Z,8.36
2023-05-15T04:13:21.163Z,8.36
2023-05-15T04:13:52.087Z,8.36
2023-05-15T04:14:23.154Z,8.36
2023-05-15T04:14:54.681Z,8.36
2023-05-15T04:15:27.263Z,8.36
2023-05-15T04:15:55.822Z,8.36
2023-05-15T04:16:28.319Z,8.36
2023-05-15T04:16:57.432Z,8.36
2023-05-15T04:17:29.087Z,8.36
2023-05-15T04:17:59.439Z,8.36
2023-05-15T04:18:31.091Z,8.36
2023-05-15T04:19:01.540Z,8.36
2023-05-15T04:19:33.094Z,8.36
2023-05-15T04:20:05.131Z,8.36
2023-05-15T04:20:42.426Z,8.36
2023-05-15T04:21:05.401Z,8.36
2023-05-15T04:21:37.069Z,8.36
2023-05-15T04:22:07.344Z,8.36
2023-05-15T04:22:39.044Z,8.36
2023-05-15T04:23:09.462Z,8.36
2023-05-15T04:23:41.152Z,8.36
2023-05-15T04:24:11.359Z,8.36
2023-05-15T04:24:43.130Z,8.36
2023-05-15T04:25:14.880Z,8.36
2023-05-15T04:25:45.585Z,8.36
2023-05-15T04:26:15.462Z,8.36
2023-05-15T04:26:47.181Z,8.36
2023-05-15T04:27:18.145Z,8.36
2023-05-15T04:27:49.424Z,8.36
2023-05-15T04:28:19.430Z,8.36
2023-05-15T04:29:02.821Z,8.36
2023-05-15T04:29:21.413Z,8.36
2023-05-15T04:29:53.790Z,8.36
2023-05-15T04:30:25.831Z,8.36
2023-05-15T04:30:55.490Z,8.36
2023-05-15T04:31:25.910Z,8.36
2023-05-15T04:31:57.270Z,8.47
2023-05-15T04:32:27.515Z,8.47
2023-05-15T04:32:59.188Z,8.47
2023-05-15T04:33:29.545Z,8.47
2023-05-15T04:34:02.176Z,8.47
2023-05-15T04:34:31.465Z,8.36
2023-05-15T04:35:03.932Z,8.36
2023-05-15T04:35:35.413Z,8.36
2023-05-15T04:36:05.496Z,8.36
2023-05-15T04:36:35.508Z,8.36
2023-05-15T04:37:07.153Z,8.36
2023-05-15T04:37:37.707Z,8.36
2023-05-15T04:38:09.186Z,8.36
2023-05-15T04:38:39.429Z,8.36
2023-05-15T04:39:11.301Z,8.36
2023-05-15T04:39:41.434Z,8.36
2023-05-15T04:40:14.095Z,8.47
2023-05-15T04:40:45.042Z,8.47
2023-05-15T04:41:15.280Z,8.47
2023-05-15T04:41:45.580Z,8.47
2023-05-15T04:42:17.281Z,8.47
2023-05-15T04:42:47.515Z,8.47
2023-05-15T04:43:19.981Z,8.47
2023-05-15T04:43:49.457Z,8.47
2023-05-15T04:44:21.240Z,8.47
2023-05-15T04:44:51.673Z,8.47
2023-05-15T04:45:24.236Z,8.47
2023-05-15T04:45:55.908Z,8.47
2023-05-15T04:46:25.701Z,8.47
2023-05-15T04:46:55.623Z,8.36
2023-05-15T04:47:27.479Z,8.36
2023-05-15T04:47:57.547Z,8.36
2023-05-15T04:48:28.493Z,8.47
2023-05-15T04:48:59.575Z,8.47
2023-05-15T04:49:31.349Z,8.47
2023-05-15T04:50:03.254Z,8.47
2023-05-15T04:50:33.147Z,8.47
2023-05-15T04:51:04.676Z,8.47
2023-05-15T04:51:35.131Z,8.47
2023-05-15T04:52:05.437Z,8.47
2023-05-15T04:52:37.175Z,8.47
2023-05-15T04:53:07.464Z,8.47
2023-05-15T04:53:39.168Z,8.47
2023-05-15T04:54:10.207Z,8.47
2023-05-15T04:54:41.153Z,8.47
2023-05-15T04:55:11.915Z,8.47
2023-05-15T04:55:44.076Z,8.47
2023-05-15T04:56:14.445Z,8.47
2023-05-15T04:56:46.284Z,8.47
2023-05-15T04:57:15.722Z,8.47
2023-05-15T04:57:48.128Z,8.47
2023-05-15T04:58:17.498Z,8.47
2023-05-15T04:58:49.212Z,8.47
2023-05-15T04:59:19.565Z,8.58
2023-05-15T04:59:51.193Z,8.58
2023-05-15T05:00:22.998Z,8.58
2023-05-15T05:00:58.274Z,8.58
2023-05-15T05:01:24.812Z,8.58
2023-05-15T05:01:56.338Z,8.58
2023-05-15T05:02:26.073Z,8.58
2023-05-15T05:02:57.341Z,8.58
2023-05-15T05:03:27.724Z,8.47
2023-05-15T05:03:59.272Z,8.47
2023-05-15T05:04:29.393Z,8.47
2023-05-15T05:05:02.724Z,8.47
2023-05-15T05:05:31.469Z,8.47
2023-05-15T05:06:03.319Z,8.47
2023-05-15T05:06:34.501Z,8.47
2023-05-15T05:07:05.449Z,8.47
2023-05-15T05:07:36.132Z,8.47
2023-05-15T05:08:07.103Z,8.47
2023-05-15T05:08:37.451Z,8.58
2023-05-15T05:09:09.067Z,8.58
2023-05-15T05:09:39.385Z,8.58
2023-05-15T05:10:12.666Z,8.58
2023-05-15T05:10:41.421Z,8.58
2023-05-15T05:11:13.076Z,8.58
2023-05-15T05:11:44.363Z,8.58
2023-05-15T05:12:15.240Z,8.58
2023-05-15T05:12:45.406Z,8.58
2023-05-15T05:13:17.125Z,8.58
2023-05-15T05:13:47.409Z,8.58
2023-05-15T05:14:20.186Z,8.58
2023-05-15T05:14:49.653Z,8.58
2023-05-15T05:15:22.274Z,8.58
2023-05-15T05:15:51.519Z,8.58
2023-05-15T05:16:23.198Z,8.58
2023-05-15T05:16:55.560Z,8.58
2023-05-15T05:17:25.552Z,8.63
2023-05-15T05:17:55.524Z,8.63
2023-05-15T05:18:27.071Z,8.63
2023-05-15T05:18:57.689Z,8.63
2023-05-15T05:19:29.119Z,8.58
2023-05-15T05:19:59.339Z,8.58
2023-05-15T05:20:41.737Z,8.58
2023-05-15T05:21:02.049Z,8.58
2023-05-15T05:21:33.089Z,8.58
2023-05-15T05:22:04.474Z,8.58
2023-05-15T05:22:35.201Z,8.58
2023-05-15T05:23:05.471Z,8.58
2023-05-15T05:23:37.742Z,8.63
2023-05-15T05:24:07.309Z,8.63
2023-05-15T05:24:39.148Z,8.63
2023-05-15T05:25:10.218Z,8.63
2023-05-15T05:25:41.219Z,8.63
2023-05-15T05:26:11.533Z,8.58
2023-05-15T05:26:43.052Z,8.58
2023-05-15T05:27:14.593Z,8.58
2023-05-15T05:27:45.431Z,8.58
2023-05-15T05:28:15.465Z,8.58
2023-05-15T05:28:47.123Z,8.58
2023-05-15T05:29:17.474Z,8.63
2023-05-15T05:29:49.367Z,8.63
2023-05-15T05:30:22.285Z,8.63
2023-05-15T05:30:51.152Z,8.63
2023-05-15T05:31:21.450Z,8.63
2023-05-15T05:31:53.287Z,8.74
2023-05-15T05:32:24.651Z,8.74
2023-05-15T05:32:55.316Z,8.74
2023-05-15T05:33:25.514Z,8.74
2023-05-15T05:33:57.072Z,8.74
2023-05-15T05:34:27.982Z,8.74
2023-05-15T05:34:59.071Z,8.74
2023-05-15T05:35:29.876Z,8.74
2023-05-15T05:36:01.382Z,8.74
2023-05-15T05:36:31.395Z,8.74
2023-05-15T05:37:04.269Z,8.74
2023-05-15T05:37:34.403Z,8.74
2023-05-15T05:38:05.436Z,8.74
2023-05-15T05:38:35.433Z,8.74
2023-05-15T05:39:07.048Z,8.74
2023-05-15T05:39:37.356Z,8.74
2023-05-15T05:40:09.504Z,8.74
2023-05-15T05:40:41.120Z,8.74
2023-05-15T05:41:11.650Z,8.74
2023-05-15T05:41:41.396Z,8.74
2023-05-15T05:42:13.066Z,8.74
2023-05-15T05:42:44.408Z,8.74
2023-05-15T05:43:15.112Z,8.74
2023-05-15T05:43:45.504Z,8.74
2023-05-15T05:44:17.151Z,8.74
2023-05-15T05:44:47.403Z,8.74
2023-05-15T05:45:20.461Z,8.74
2023-05-15T05:45:49.528Z,8.74
2023-05-15T05:46:21.200Z,8.74
2023-05-15T05:46:51.460Z,8.74
2023-05-15T05:47:23.155Z,8.74
2023-05-15T05:47:54.815Z,8.74
2023-05-15T05:48:25.803Z,8.74
2023-05-15T05:48:55.622Z,8.86
2023-05-15T05:49:26.457Z,8.86
2023-05-15T05:49:58.130Z,8.86
2023-05-15T05:50:29.640Z,8.86
2023-05-15T05:51:00.631Z,8.86
2023-05-15T05:51:30.530Z,8.86
2023-05-15T05:52:02.896Z,8.86
2023-05-15T05:52:32.486Z,8.86
2023-05-15T05:53:06.178Z,8.86
2023-05-15T05:53:34.315Z,8.86
2023-05-15T05:54:06.081Z,8.86
2023-05-15T05:54:37.028Z,8.86
2023-05-15T05:55:08.572Z,8.86
2023-05-15T05:55:38.358Z,8.86
2023-05-15T05:56:10.078Z,8.86
2023-05-15T05:56:40.343Z,8.86
2023-05-15T05:57:12.806Z,8.86
2023-05-15T05:57:42.354Z,8.86
2023-05-15T05:58:25.004Z,8.86
2023-05-15T05:58:45.457Z,8.97
2023-05-15T05:59:16.077Z,8.97
2023-05-15T05:59:46.391Z,8.97
2023-05-15T06:00:20.290Z,8.97
2023-05-15T06:00:50.671Z,8.86
2023-05-15T06:01:20.760Z,8.86
2023-05-15T06:01:50.465Z,8.86
2023-05-15T06:02:22.020Z,8.86
2023-05-15T06:02:52.606Z,8.86
2023-05-15T06:03:25.407Z,8.86
2023-05-15T06:03:54.822Z,8.86
2023-05-15T06:04:26.133Z,8.86
2023-05-15T06:04:56.452Z,8.86
2023-05-15T06:05:28.600Z,8.86
2023-05-15T06:05:58.389Z,8.86
2023-05-15T06:06:30.116Z,8.86
2023-05-15T06:07:00.374Z,8.86
2023-05-15T06:07:32.075Z,8.86
2023-05-15T06:08:03.065Z,8.97
2023-05-15T06:08:35.125Z,8.97
2023-05-15T06:09:04.841Z,8.97
2023-05-15T06:09:36.039Z,8.97
2023-05-15T06:10:06.939Z,8.97
2023-05-15T06:10:38.145Z,8.97
2023-05-15T06:11:08.419Z,8.97
2023-05-15T06:11:40.063Z,8.97
2023-05-15T06:12:10.697Z,8.97
2023-05-15T06:12:42.134Z,8.97
2023-05-15T06:13:12.635Z,8.97
2023-05-15T06:13:45.319Z,8.86
2023-05-15T06:14:14.839Z,8.86
2023-05-15T06:14:46.762Z,8.86
2023-05-15T06:15:17.522Z,8.86
2023-05-15T06:15:48.287Z,8.86
2023-05-15T06:16:18.816Z,8.86
2023-05-15T06:16:50.362Z,8.86
2023-05-15T06:17:20.526Z,8.86
2023-05-15T06:17:52.247Z,8.86
2023-05-15T06:18:22.555Z,8.86
2023-05-15T06:18:55.707Z,8.86
2023-05-15T06:19:25.056Z,8.86
2023-05-15T06:19:56.355Z,8.97
2023-05-15T06:20:36.517Z,8.97
2023-05-15T06:20:58.490Z,8.97
2023-05-15T06:21:29.408Z,9.08
2023-05-15T06:22:00.387Z,9.08
2023-05-15T06:22:30.603Z,9.08
2023-05-15T06:23:02.315Z,9.08
2023-05-15T06:23:32.500Z,9.08
2023-05-15T06:24:05.792Z,9.08
2023-05-15T06:24:34.537Z,9.08
2023-05-15T06:25:07.259Z,9.08
2023-05-15T06:25:36.941Z,9.08
2023-05-15T06:26:08.255Z,9.08
2023-05-15T06:26:38.544Z,9.08
2023-05-15T06:27:11.083Z,9.08
2023-05-15T06:27:40.526Z,9.08
2023-05-15T06:28:12.789Z,9.08
2023-05-15T06:28:42.577Z,9.13
2023-05-15T06:29:15.430Z,9.13
2023-05-15T06:29:44.945Z,9.24
2023-05-15T06:30:17.178Z,9.24
2023-05-15T06:30:46.588Z,9.24
2023-05-15T06:31:18.373Z,9.24
2023-05-15T06:31:48.874Z,9.24
2023-05-15T06:32:20.391Z,9.24
2023-05-15T06:32:50.606Z,9.13
2023-05-15T06:33:22.334Z,9.13
2023-05-15T06:33:52.575Z,9.08
2023-05-15T06:34:25.559Z,9.08
2023-05-15T06:34:55.898Z,9.08
2023-05-15T06:35:26.853Z,9.08
2023-05-15T06:35:56.598Z,9.08
2023-05-15T06:36:28.203Z,9.08
2023-05-15T06:36:58.603Z,9.08
2023-05-15T06:37:30.940Z,9.08
2023-05-15T06:38:00.575Z,9.08
2023-05-15T06:38:33.140Z,9.13
2023-05-15T06:39:03.217Z,9.13
2023-05-15T06:39:35.807Z,9.13
2023-05-15T06:40:07.504Z,9.13
2023-05-15T06:40:42.347Z,9.36
2023-05-15T06:41:07.139Z,9.36
2023-05-15T06:41:38.173Z,9.47
2023-05-15T06:42:09.208Z,9.47
2023-05-15T06:42:39.563Z,9.47
2023-05-15T06:43:11.204Z,9.47
2023-05-15T06:43:41.510Z,9.47
2023-05-15T06:44:14.251Z,9.24
2023-05-15T06:44:45.150Z,9.24
2023-05-15T06:45:16.448Z,9.24
2023-05-15T06:45:45.994Z,9.24
2023-05-15T06:46:17.362Z,9.24
2023-05-15T06:46:47.614Z,9.36
2023-05-15T06:47:19.442Z,9.36
2023-05-15T06:47:49.670Z,9.36
2023-05-15T06:48:21.879Z,9.36
2023-05-15T06:48:51.480Z,9.36
2023-05-15T06:49:22.592Z,9.36
2023-05-15T06:49:55.612Z,9.36
2023-05-15T06:50:26.757Z,9.36
2023-05-15T06:50:56.971Z,9.36
2023-05-15T06:51:26.696Z,9.36
2023-05-15T06:51:58.406Z,9.24
2023-05-15T06:52:29.134Z,9.24